sensor_id;sensor_type;location;lat;lon;timestamp;P1;durP1;ratioP1;P2;durP2;ratioP2
22144;SDS011;11238;48.730;11.566;2023-02-20T00:00:35;5.70;;;2.97;;
22144;SDS011;11238;48.730;11.566;2023-02-20T00:03:03;5.47;;;2.83;;
22144;SDS011;11238;48.730;11.566;2023-02-20T00:05:30;6.45;;;2.75;;
22144;SDS011;11238;48.730;11.566;2023-02-20T00:07:56;8.98;;;3.03;;
22144;SDS011;11238;48.730;11.566;2023-02-20T00:10:22;6.13;;;2.58;;
22144;SDS011;11238;48.730;11.566;2023-02-20T00:12:48;4.63;;;2.70;;
22144;SDS011;11238;48.730;11.566;2023-02-20T00:15:15;6.13;;;3.03;;
22144;SDS011;11238;48.730;11.566;2023-02-20T00:18:06;4.70;;;2.58;;
22144;SDS011;11238;48.730;11.566;2023-02-20T00:20:32;5.90;;;2.60;;
22144;SDS011;11238;48.730;11.566;2023-02-20T00:22:57;5.80;;;2.50;;
22144;SDS011;11238;48.730;11.566;2023-02-20T00:25:24;6.05;;;2.80;;
22144;SDS011;11238;48.730;11.566;2023-02-20T00:27:49;5.90;;;2.50;;
22144;SDS011;11238;48.730;11.566;2023-02-20T00:30:24;5.47;;;2.90;;
22144;SDS011;11238;48.730;11.566;2023-02-20T00:32:51;7.45;;;2.60;;
22144;SDS011;11238;48.730;11.566;2023-02-20T00:35:20;6.10;;;2.83;;
22144;SDS011;11238;48.730;11.566;2023-02-20T00:37:47;6.25;;;2.63;;
22144;SDS011;11238;48.730;11.566;2023-02-20T00:40:35;5.13;;;2.97;;
22144;SDS011;11238;48.730;11.566;2023-02-20T00:43:01;7.65;;;3.20;;
22144;SDS011;11238;48.730;11.566;2023-02-20T00:45:27;8.40;;;3.30;;
22144;SDS011;11238;48.730;11.566;2023-02-20T00:47:54;5.30;;;2.90;;
22144;SDS011;11238;48.730;11.566;2023-02-20T00:50:22;7.25;;;3.17;;
22144;SDS011;11238;48.730;11.566;2023-02-20T00:52:49;6.63;;;3.47;;
22144;SDS011;11238;48.730;11.566;2023-02-20T00:55:16;6.97;;;3.70;;
22144;SDS011;11238;48.730;11.566;2023-02-20T00:57:44;5.95;;;3.33;;
22144;SDS011;11238;48.730;11.566;2023-02-20T01:00:14;8.23;;;3.50;;
22144;SDS011;11238;48.730;11.566;2023-02-20T01:02:44;4.00;;;3.10;;
22144;SDS011;11238;48.730;11.566;2023-02-20T01:05:10;5.32;;;3.42;;
22144;SDS011;11238;48.730;11.566;2023-02-20T01:07:36;6.60;;;3.67;;
22144;SDS011;11238;48.730;11.566;2023-02-20T01:10:05;8.18;;;3.50;;
22144;SDS011;11238;48.730;11.566;2023-02-20T01:12:32;8.23;;;3.40;;
22144;SDS011;11238;48.730;11.566;2023-02-20T01:14:58;6.90;;;3.35;;
22144;SDS011;11238;48.730;11.566;2023-02-20T01:17:26;9.57;;;3.72;;
22144;SDS011;11238;48.730;11.566;2023-02-20T01:19:54;5.97;;;3.33;;
22144;SDS011;11238;48.730;11.566;2023-02-20T01:22:42;8.60;;;3.22;;
22144;SDS011;11238;48.730;11.566;2023-02-20T01:25:09;8.23;;;3.33;;
22144;SDS011;11238;48.730;11.566;2023-02-20T01:27:35;7.25;;;3.25;;
22144;SDS011;11238;48.730;11.566;2023-02-20T01:30:01;7.13;;;3.47;;
22144;SDS011;11238;48.730;11.566;2023-02-20T01:32:27;8.20;;;3.65;;
22144;SDS011;11238;48.730;11.566;2023-02-20T01:34:53;7.22;;;3.22;;
22144;SDS011;11238;48.730;11.566;2023-02-20T01:37:19;5.93;;;3.10;;
22144;SDS011;11238;48.730;11.566;2023-02-20T01:39:46;7.22;;;3.40;;
22144;SDS011;11238;48.730;11.566;2023-02-20T01:42:15;7.18;;;3.60;;
22144;SDS011;11238;48.730;11.566;2023-02-20T01:44:45;7.68;;;3.65;;
22144;SDS011;11238;48.730;11.566;2023-02-20T01:47:16;7.22;;;3.25;;
22144;SDS011;11238;48.730;11.566;2023-02-20T01:49:51;9.15;;;3.75;;
22144;SDS011;11238;48.730;11.566;2023-02-20T01:52:28;7.78;;;3.55;;
22144;SDS011;11238;48.730;11.566;2023-02-20T01:57:28;5.45;;;3.10;;
22144;SDS011;11238;48.730;11.566;2023-02-20T01:59:58;10.63;;;3.80;;
22144;SDS011;11238;48.730;11.566;2023-02-20T02:02:40;5.43;;;3.13;;
22144;SDS011;11238;48.730;11.566;2023-02-20T02:05:10;7.57;;;3.20;;
22144;SDS011;11238;48.730;11.566;2023-02-20T02:07:37;6.30;;;2.90;;
22144;SDS011;11238;48.730;11.566;2023-02-20T02:10:07;7.63;;;3.25;;
22144;SDS011;11238;48.730;11.566;2023-02-20T02:12:39;8.00;;;3.38;;
22144;SDS011;11238;48.730;11.566;2023-02-20T02:15:15;11.35;;;3.63;;
22144;SDS011;11238;48.730;11.566;2023-02-20T02:17:53;8.27;;;3.00;;
22144;SDS011;11238;48.730;11.566;2023-02-20T02:28:12;4.93;;;2.67;;
22144;SDS011;11238;48.730;11.566;2023-02-20T02:45:14;9.50;;;3.47;;
22144;SDS011;11238;48.730;11.566;2023-02-20T02:50:33;7.65;;;2.60;;
22144;SDS011;11238;48.730;11.566;2023-02-20T02:53:03;5.30;;;2.90;;
22144;SDS011;11238;48.730;11.566;2023-02-20T02:55:30;6.50;;;3.30;;
22144;SDS011;11238;48.730;11.566;2023-02-20T02:57:59;5.30;;;3.03;;
22144;SDS011;11238;48.730;11.566;2023-02-20T03:08:43;7.97;;;2.70;;
22144;SDS011;11238;48.730;11.566;2023-02-20T03:13:48;10.93;;;2.88;;
22144;SDS011;11238;48.730;11.566;2023-02-20T03:16:56;9.02;;;2.92;;
22144;SDS011;11238;48.730;11.566;2023-02-20T03:19:36;6.20;;;2.75;;
22144;SDS011;11238;48.730;11.566;2023-02-20T03:22:14;5.85;;;2.70;;
22144;SDS011;11238;48.730;11.566;2023-02-20T03:24:44;8.18;;;3.03;;
22144;SDS011;11238;48.730;11.566;2023-02-20T03:27:22;6.18;;;2.80;;
22144;SDS011;11238;48.730;11.566;2023-02-20T03:29:55;5.50;;;2.50;;
22144;SDS011;11238;48.730;11.566;2023-02-20T03:32:23;7.57;;;3.28;;
22144;SDS011;11238;48.730;11.566;2023-02-20T03:35:12;5.78;;;2.75;;
22144;SDS011;11238;48.730;11.566;2023-02-20T03:37:59;7.65;;;3.05;;
22144;SDS011;11238;48.730;11.566;2023-02-20T03:40:47;5.30;;;2.88;;
22144;SDS011;11238;48.730;11.566;2023-02-20T03:43:32;5.78;;;2.95;;
22144;SDS011;11238;48.730;11.566;2023-02-20T03:46:01;5.00;;;2.85;;
22144;SDS011;11238;48.730;11.566;2023-02-20T03:51:13;6.40;;;2.90;;
22144;SDS011;11238;48.730;11.566;2023-02-20T03:53:51;8.40;;;2.92;;
22144;SDS011;11238;48.730;11.566;2023-02-20T03:56:24;6.70;;;3.10;;
22144;SDS011;11238;48.730;11.566;2023-02-20T03:59:12;6.78;;;3.40;;
22144;SDS011;11238;48.730;11.566;2023-02-20T04:01:43;4.63;;;2.83;;
22144;SDS011;11238;48.730;11.566;2023-02-20T04:04:16;5.63;;;2.90;;
22144;SDS011;11238;48.730;11.566;2023-02-20T04:06:46;9.10;;;3.78;;
22144;SDS011;11238;48.730;11.566;2023-02-20T04:09:16;6.65;;;3.10;;
22144;SDS011;11238;48.730;11.566;2023-02-20T04:11:51;5.30;;;3.28;;
22144;SDS011;11238;48.730;11.566;2023-02-20T04:14:22;6.43;;;3.55;;
22144;SDS011;11238;48.730;11.566;2023-02-20T04:17:12;7.90;;;3.20;;
22144;SDS011;11238;48.730;11.566;2023-02-20T04:19:44;6.47;;;4.03;;
22144;SDS011;11238;48.730;11.566;2023-02-20T04:22:11;10.48;;;3.85;;
22144;SDS011;11238;48.730;11.566;2023-02-20T04:24:49;9.13;;;3.58;;
22144;SDS011;11238;48.730;11.566;2023-02-20T04:27:24;7.88;;;3.50;;
22144;SDS011;11238;48.730;11.566;2023-02-20T04:30:12;5.80;;;3.90;;
22144;SDS011;11238;48.730;11.566;2023-02-20T04:32:38;7.63;;;3.60;;
22144;SDS011;11238;48.730;11.566;2023-02-20T04:35:05;8.68;;;3.95;;
22144;SDS011;11238;48.730;11.566;2023-02-20T04:37:32;9.43;;;3.85;;
22144;SDS011;11238;48.730;11.566;2023-02-20T04:39:58;9.07;;;3.92;;
22144;SDS011;11238;48.730;11.566;2023-02-20T04:42:23;6.93;;;3.63;;
22144;SDS011;11238;48.730;11.566;2023-02-20T04:44:49;8.48;;;4.10;;
22144;SDS011;11238;48.730;11.566;2023-02-20T04:47:16;8.18;;;3.80;;
22144;SDS011;11238;48.730;11.566;2023-02-20T04:49:43;6.40;;;3.60;;
22144;SDS011;11238;48.730;11.566;2023-02-20T04:52:10;8.07;;;3.80;;
22144;SDS011;11238;48.730;11.566;2023-02-20T04:54:37;9.07;;;3.70;;
22144;SDS011;11238;48.730;11.566;2023-02-20T04:57:03;10.80;;;4.00;;
22144;SDS011;11238;48.730;11.566;2023-02-20T04:59:30;7.90;;;3.72;;
22144;SDS011;11238;48.730;11.566;2023-02-20T05:01:57;9.40;;;3.80;;
22144;SDS011;11238;48.730;11.566;2023-02-20T05:04:25;7.68;;;3.78;;
22144;SDS011;11238;48.730;11.566;2023-02-20T05:06:52;8.13;;;3.83;;
22144;SDS011;11238;48.730;11.566;2023-02-20T05:09:18;8.35;;;3.92;;
22144;SDS011;11238;48.730;11.566;2023-02-20T05:11:45;9.15;;;3.78;;
22144;SDS011;11238;48.730;11.566;2023-02-20T05:14:11;7.60;;;3.80;;
22144;SDS011;11238;48.730;11.566;2023-02-20T05:16:37;5.90;;;3.75;;
22144;SDS011;11238;48.730;11.566;2023-02-20T05:19:04;7.93;;;3.70;;
22144;SDS011;11238;48.730;11.566;2023-02-20T05:21:30;7.50;;;3.95;;
22144;SDS011;11238;48.730;11.566;2023-02-20T05:24:14;8.57;;;4.20;;
22144;SDS011;11238;48.730;11.566;2023-02-20T05:26:40;8.07;;;3.90;;
22144;SDS011;11238;48.730;11.566;2023-02-20T05:29:07;12.55;;;4.35;;
22144;SDS011;11238;48.730;11.566;2023-02-20T05:31:35;8.20;;;3.80;;
22144;SDS011;11238;48.730;11.566;2023-02-20T05:34:01;8.32;;;3.80;;
22144;SDS011;11238;48.730;11.566;2023-02-20T05:36:27;8.55;;;3.83;;
22144;SDS011;11238;48.730;11.566;2023-02-20T05:38:53;6.30;;;3.90;;
22144;SDS011;11238;48.730;11.566;2023-02-20T05:41:19;11.13;;;4.28;;
22144;SDS011;11238;48.730;11.566;2023-02-20T05:43:45;6.80;;;3.65;;
22144;SDS011;11238;48.730;11.566;2023-02-20T05:46:12;8.18;;;4.07;;
22144;SDS011;11238;48.730;11.566;2023-02-20T05:48:39;10.00;;;3.88;;
22144;SDS011;11238;48.730;11.566;2023-02-20T05:51:05;6.78;;;3.80;;
22144;SDS011;11238;48.730;11.566;2023-02-20T05:53:31;11.85;;;3.78;;
22144;SDS011;11238;48.730;11.566;2023-02-20T05:55:58;8.00;;;4.07;;
22144;SDS011;11238;48.730;11.566;2023-02-20T05:58:25;7.57;;;3.95;;
22144;SDS011;11238;48.730;11.566;2023-02-20T06:00:51;5.38;;;4.05;;
22144;SDS011;11238;48.730;11.566;2023-02-20T06:03:16;10.82;;;3.92;;
22144;SDS011;11238;48.730;11.566;2023-02-20T06:05:43;11.32;;;3.92;;
22144;SDS011;11238;48.730;11.566;2023-02-20T06:08:09;9.75;;;4.03;;
22144;SDS011;11238;48.730;11.566;2023-02-20T06:10:37;9.13;;;3.90;;
22144;SDS011;11238;48.730;11.566;2023-02-20T06:13:03;9.25;;;3.78;;
22144;SDS011;11238;48.730;11.566;2023-02-20T06:15:30;11.57;;;3.70;;
22144;SDS011;11238;48.730;11.566;2023-02-20T06:17:56;10.10;;;3.45;;
22144;SDS011;11238;48.730;11.566;2023-02-20T06:20:22;10.55;;;3.88;;
22144;SDS011;11238;48.730;11.566;2023-02-20T06:22:48;4.68;;;3.08;;
22144;SDS011;11238;48.730;11.566;2023-02-20T06:25:15;10.63;;;4.03;;
22144;SDS011;11238;48.730;11.566;2023-02-20T06:27:40;7.95;;;3.90;;
22144;SDS011;11238;48.730;11.566;2023-02-20T06:30:09;8.32;;;3.80;;
22144;SDS011;11238;48.730;11.566;2023-02-20T06:32:54;8.63;;;3.60;;
22144;SDS011;11238;48.730;11.566;2023-02-20T06:35:20;8.50;;;3.60;;
22144;SDS011;11238;48.730;11.566;2023-02-20T06:37:45;6.30;;;3.50;;
22144;SDS011;11238;48.730;11.566;2023-02-20T06:40:11;9.13;;;4.10;;
22144;SDS011;11238;48.730;11.566;2023-02-20T06:42:37;12.88;;;3.70;;
22144;SDS011;11238;48.730;11.566;2023-02-20T06:45:03;10.88;;;4.07;;
22144;SDS011;11238;48.730;11.566;2023-02-20T06:47:29;6.43;;;3.72;;
22144;SDS011;11238;48.730;11.566;2023-02-20T06:49:56;8.27;;;4.10;;
22144;SDS011;11238;48.730;11.566;2023-02-20T06:52:22;9.18;;;4.00;;
22144;SDS011;11238;48.730;11.566;2023-02-20T06:54:48;10.52;;;4.03;;
22144;SDS011;11238;48.730;11.566;2023-02-20T06:57:15;8.65;;;3.78;;
22144;SDS011;11238;48.730;11.566;2023-02-20T07:00:00;9.98;;;4.25;;
22144;SDS011;11238;48.730;11.566;2023-02-20T07:02:28;7.20;;;3.92;;
22144;SDS011;11238;48.730;11.566;2023-02-20T07:04:55;8.70;;;3.85;;
22144;SDS011;11238;48.730;11.566;2023-02-20T07:07:21;10.35;;;4.00;;
22144;SDS011;11238;48.730;11.566;2023-02-20T07:09:47;7.70;;;3.88;;
22144;SDS011;11238;48.730;11.566;2023-02-20T07:12:13;10.00;;;4.20;;
22144;SDS011;11238;48.730;11.566;2023-02-20T07:14:39;7.82;;;4.10;;
22144;SDS011;11238;48.730;11.566;2023-02-20T07:17:05;9.00;;;3.67;;
22144;SDS011;11238;48.730;11.566;2023-02-20T07:19:31;9.32;;;3.83;;
22144;SDS011;11238;48.730;11.566;2023-02-20T07:21:58;6.43;;;3.63;;
22144;SDS011;11238;48.730;11.566;2023-02-20T07:24:23;8.55;;;3.90;;
22144;SDS011;11238;48.730;11.566;2023-02-20T07:26:49;12.57;;;4.10;;
22144;SDS011;11238;48.730;11.566;2023-02-20T07:29:15;9.20;;;4.47;;
22144;SDS011;11238;48.730;11.566;2023-02-20T07:31:42;5.97;;;3.60;;
22144;SDS011;11238;48.730;11.566;2023-02-20T07:34:27;9.52;;;3.90;;
22144;SDS011;11238;48.730;11.566;2023-02-20T07:37:15;10.40;;;4.00;;
22144;SDS011;11238;48.730;11.566;2023-02-20T07:40:02;9.68;;;3.95;;
22144;SDS011;11238;48.730;11.566;2023-02-20T07:42:29;10.40;;;4.03;;
22144;SDS011;11238;48.730;11.566;2023-02-20T07:45:04;13.43;;;4.13;;
22144;SDS011;11238;48.730;11.566;2023-02-20T07:47:32;11.23;;;4.65;;
22144;SDS011;11238;48.730;11.566;2023-02-20T07:49:59;8.52;;;4.07;;
22144;SDS011;11238;48.730;11.566;2023-02-20T07:52:26;7.93;;;3.78;;
22144;SDS011;11238;48.730;11.566;2023-02-20T07:54:51;11.20;;;4.40;;
22144;SDS011;11238;48.730;11.566;2023-02-20T07:57:18;8.75;;;4.00;;
22144;SDS011;11238;48.730;11.566;2023-02-20T07:59:44;13.32;;;4.10;;
22144;SDS011;11238;48.730;11.566;2023-02-20T08:02:10;9.40;;;4.22;;
22144;SDS011;11238;48.730;11.566;2023-02-20T08:04:36;11.18;;;4.30;;
22144;SDS011;11238;48.730;11.566;2023-02-20T08:07:02;7.93;;;4.03;;
22144;SDS011;11238;48.730;11.566;2023-02-20T08:09:27;12.50;;;4.25;;
22144;SDS011;11238;48.730;11.566;2023-02-20T08:11:54;7.13;;;3.90;;
22144;SDS011;11238;48.730;11.566;2023-02-20T08:14:20;8.63;;;4.10;;
22144;SDS011;11238;48.730;11.566;2023-02-20T08:16:45;6.65;;;3.53;;
22144;SDS011;11238;48.730;11.566;2023-02-20T08:19:12;11.38;;;4.38;;
22144;SDS011;11238;48.730;11.566;2023-02-20T08:21:38;9.32;;;4.20;;
22144;SDS011;11238;48.730;11.566;2023-02-20T08:24:04;10.45;;;3.92;;
22144;SDS011;11238;48.730;11.566;2023-02-20T08:26:31;7.45;;;3.80;;
22144;SDS011;11238;48.730;11.566;2023-02-20T08:28:59;11.52;;;4.28;;
22144;SDS011;11238;48.730;11.566;2023-02-20T08:31:26;10.70;;;4.20;;
22144;SDS011;11238;48.730;11.566;2023-02-20T08:34:14;11.50;;;4.53;;
22144;SDS011;11238;48.730;11.566;2023-02-20T08:36:41;6.70;;;3.67;;
22144;SDS011;11238;48.730;11.566;2023-02-20T08:39:08;9.02;;;4.32;;
22144;SDS011;11238;48.730;11.566;2023-02-20T08:41:40;10.25;;;4.35;;
22144;SDS011;11238;48.730;11.566;2023-02-20T08:44:06;9.13;;;4.03;;
22144;SDS011;11238;48.730;11.566;2023-02-20T08:46:33;9.43;;;4.20;;
22144;SDS011;11238;48.730;11.566;2023-02-20T08:48:59;9.38;;;4.25;;
22144;SDS011;11238;48.730;11.566;2023-02-20T08:51:26;9.85;;;3.95;;
22144;SDS011;11238;48.730;11.566;2023-02-20T08:53:52;6.88;;;3.72;;
22144;SDS011;11238;48.730;11.566;2023-02-20T08:56:19;5.68;;;3.83;;
22144;SDS011;11238;48.730;11.566;2023-02-20T08:58:45;7.40;;;3.72;;
22144;SDS011;11238;48.730;11.566;2023-02-20T09:01:11;8.18;;;4.28;;
22144;SDS011;11238;48.730;11.566;2023-02-20T09:03:37;8.60;;;3.88;;
22144;SDS011;11238;48.730;11.566;2023-02-20T09:06:07;7.68;;;3.72;;
22144;SDS011;11238;48.730;11.566;2023-02-20T09:08:34;7.63;;;3.50;;
22144;SDS011;11238;48.730;11.566;2023-02-20T09:11:00;11.25;;;3.70;;
22144;SDS011;11238;48.730;11.566;2023-02-20T09:13:26;8.43;;;3.10;;
22144;SDS011;11238;48.730;11.566;2023-02-20T09:15:52;7.15;;;3.58;;
22144;SDS011;11238;48.730;11.566;2023-02-20T09:18:18;7.55;;;3.33;;
22144;SDS011;11238;48.730;11.566;2023-02-20T09:20:44;10.80;;;3.50;;
22144;SDS011;11238;48.730;11.566;2023-02-20T09:23:09;9.43;;;3.92;;
22144;SDS011;11238;48.730;11.566;2023-02-20T09:25:35;6.93;;;3.50;;
22144;SDS011;11238;48.730;11.566;2023-02-20T09:28:01;8.35;;;3.22;;
22144;SDS011;11238;48.730;11.566;2023-02-20T09:30:27;7.78;;;3.53;;
22144;SDS011;11238;48.730;11.566;2023-02-20T09:32:53;8.20;;;3.00;;
22144;SDS011;11238;48.730;11.566;2023-02-20T09:35:20;9.55;;;3.28;;
22144;SDS011;11238;48.730;11.566;2023-02-20T09:37:51;5.53;;;3.40;;
22144;SDS011;11238;48.730;11.566;2023-02-20T09:40:20;8.98;;;3.67;;
22144;SDS011;11238;48.730;11.566;2023-02-20T09:43:01;7.60;;;3.30;;
22144;SDS011;11238;48.730;11.566;2023-02-20T09:45:31;6.88;;;3.05;;
22144;SDS011;11238;48.730;11.566;2023-02-20T09:53:15;7.20;;;3.30;;
22144;SDS011;11238;48.730;11.566;2023-02-20T09:55:46;7.72;;;3.47;;
22144;SDS011;11238;48.730;11.566;2023-02-20T09:58:25;7.50;;;3.15;;
22144;SDS011;11238;48.730;11.566;2023-02-20T10:01:04;5.75;;;2.85;;
22144;SDS011;11238;48.730;11.566;2023-02-20T10:06:24;6.97;;;3.10;;
22144;SDS011;11238;48.730;11.566;2023-02-20T10:08:53;5.80;;;2.75;;
22144;SDS011;11238;48.730;11.566;2023-02-20T10:11:38;7.88;;;3.17;;
22144;SDS011;11238;48.730;11.566;2023-02-20T10:16:53;7.13;;;3.28;;
22144;SDS011;11238;48.730;11.566;2023-02-20T10:19:26;5.13;;;2.97;;
22144;SDS011;11238;48.730;11.566;2023-02-20T10:24:51;5.20;;;2.70;;
22144;SDS011;11238;48.730;11.566;2023-02-20T10:30:24;5.70;;;2.80;;
22144;SDS011;11238;48.730;11.566;2023-02-20T10:32:56;6.50;;;2.63;;
22144;SDS011;11238;48.730;11.566;2023-02-20T10:35:34;8.70;;;3.03;;
22144;SDS011;11238;48.730;11.566;2023-02-20T10:38:07;6.88;;;2.88;;
22144;SDS011;11238;48.730;11.566;2023-02-20T10:40:44;3.63;;;2.25;;
22144;SDS011;11238;48.730;11.566;2023-02-20T10:43:18;4.32;;;2.78;;
22144;SDS011;11238;48.730;11.566;2023-02-20T10:46:10;5.32;;;2.63;;
22144;SDS011;11238;48.730;11.566;2023-02-20T10:49:08;7.53;;;2.83;;
22144;SDS011;11238;48.730;11.566;2023-02-20T10:51:44;7.82;;;2.63;;
22144;SDS011;11238;48.730;11.566;2023-02-20T10:54:17;5.97;;;3.00;;
22144;SDS011;11238;48.730;11.566;2023-02-20T10:59:22;7.18;;;2.42;;
22144;SDS011;11238;48.730;11.566;2023-02-20T11:02:14;6.68;;;2.83;;
22144;SDS011;11238;48.730;11.566;2023-02-20T11:04:45;7.15;;;2.70;;
22144;SDS011;11238;48.730;11.566;2023-02-20T11:07:16;5.50;;;2.53;;
22144;SDS011;11238;48.730;11.566;2023-02-20T11:09:44;5.82;;;2.90;;
22144;SDS011;11238;48.730;11.566;2023-02-20T11:14:48;5.13;;;2.40;;
22144;SDS011;11238;48.730;11.566;2023-02-20T11:17:21;4.63;;;2.53;;
22144;SDS011;11238;48.730;11.566;2023-02-20T11:19:52;5.82;;;2.50;;
22144;SDS011;11238;48.730;11.566;2023-02-20T11:28:28;6.03;;;2.58;;
22144;SDS011;11238;48.730;11.566;2023-02-20T11:30:39;8.07;;;2.75;;
22144;SDS011;11238;48.730;11.566;2023-02-20T11:35:46;5.13;;;2.45;;
22144;SDS011;11238;48.730;11.566;2023-02-20T11:43:18;5.13;;;2.42;;
22144;SDS011;11238;48.730;11.566;2023-02-20T11:45:48;3.80;;;2.47;;
22144;SDS011;11238;48.730;11.566;2023-02-20T11:48:16;15.85;;;3.03;;
22144;SDS011;11238;48.730;11.566;2023-02-20T11:50:47;6.90;;;2.30;;
22144;SDS011;11238;48.730;11.566;2023-02-20T11:55:43;4.65;;;2.83;;
22144;SDS011;11238;48.730;11.566;2023-02-20T11:58:22;4.97;;;2.40;;
22144;SDS011;11238;48.730;11.566;2023-02-20T12:00:50;5.18;;;2.35;;
22144;SDS011;11238;48.730;11.566;2023-02-20T12:03:22;5.35;;;2.60;;
22144;SDS011;11238;48.730;11.566;2023-02-20T12:05:58;4.53;;;2.20;;
22144;SDS011;11238;48.730;11.566;2023-02-20T12:11:05;7.22;;;2.50;;
22144;SDS011;11238;48.730;11.566;2023-02-20T12:13:41;4.90;;;2.17;;
22144;SDS011;11238;48.730;11.566;2023-02-20T12:19:15;7.78;;;2.00;;
22144;SDS011;11238;48.730;11.566;2023-02-20T12:22:33;4.82;;;2.47;;
22144;SDS011;11238;48.730;11.566;2023-02-20T12:33:06;4.68;;;2.20;;
22144;SDS011;11238;48.730;11.566;2023-02-20T12:35:58;4.68;;;2.35;;
22144;SDS011;11238;48.730;11.566;2023-02-20T12:38:47;4.13;;;2.10;;
22144;SDS011;11238;48.730;11.566;2023-02-20T12:55:22;4.60;;;2.22;;
22144;SDS011;11238;48.730;11.566;2023-02-20T12:58:23;5.47;;;1.95;;
22144;SDS011;11238;48.730;11.566;2023-02-20T13:01:00;5.55;;;2.00;;
22144;SDS011;11238;48.730;11.566;2023-02-20T13:05:55;5.68;;;2.65;;
22144;SDS011;11238;48.730;11.566;2023-02-20T13:08:48;9.68;;;2.80;;
22144;SDS011;11238;48.730;11.566;2023-02-20T13:11:18;5.72;;;1.95;;
22144;SDS011;11238;48.730;11.566;2023-02-20T13:19:29;8.10;;;2.15;;
22144;SDS011;11238;48.730;11.566;2023-02-20T13:22:05;7.32;;;2.30;;
22144;SDS011;11238;48.730;11.566;2023-02-20T13:24:35;6.55;;;2.10;;
22144;SDS011;11238;48.730;11.566;2023-02-20T13:27:06;3.65;;;2.35;;
22144;SDS011;11238;48.730;11.566;2023-02-20T13:29:37;5.75;;;2.20;;
22144;SDS011;11238;48.730;11.566;2023-02-20T13:32:23;3.88;;;1.83;;
22144;SDS011;11238;48.730;11.566;2023-02-20T13:34:51;6.65;;;1.95;;
22144;SDS011;11238;48.730;11.566;2023-02-20T13:40:32;3.88;;;2.33;;
22144;SDS011;11238;48.730;11.566;2023-02-20T13:43:33;5.45;;;2.30;;
22144;SDS011;11238;48.730;11.566;2023-02-20T13:45:44;5.32;;;2.33;;
22144;SDS011;11238;48.730;11.566;2023-02-20T13:53:43;3.83;;;1.90;;
22144;SDS011;11238;48.730;11.566;2023-02-20T13:56:19;3.63;;;1.80;;
22144;SDS011;11238;48.730;11.566;2023-02-20T13:58:47;3.03;;;1.73;;
22144;SDS011;11238;48.730;11.566;2023-02-20T14:01:13;5.43;;;1.65;;
22144;SDS011;11238;48.730;11.566;2023-02-20T14:03:39;4.55;;;2.00;;
22144;SDS011;11238;48.730;11.566;2023-02-20T14:08:37;2.90;;;1.70;;
22144;SDS011;11238;48.730;11.566;2023-02-20T14:13:53;4.72;;;2.00;;
22144;SDS011;11238;48.730;11.566;2023-02-20T14:16:29;4.13;;;1.98;;
22144;SDS011;11238;48.730;11.566;2023-02-20T14:19:00;3.08;;;1.67;;
22144;SDS011;11238;48.730;11.566;2023-02-20T14:21:30;4.30;;;1.48;;
22144;SDS011;11238;48.730;11.566;2023-02-20T14:24:10;3.80;;;1.33;;
22144;SDS011;11238;48.730;11.566;2023-02-20T14:26:47;2.42;;;1.30;;
22144;SDS011;11238;48.730;11.566;2023-02-20T14:29:34;5.20;;;1.55;;
22144;SDS011;11238;48.730;11.566;2023-02-20T14:32:01;3.45;;;1.40;;
22144;SDS011;11238;48.730;11.566;2023-02-20T14:40:22;3.35;;;1.20;;
22144;SDS011;11238;48.730;11.566;2023-02-20T14:43:03;3.03;;;1.20;;
22144;SDS011;11238;48.730;11.566;2023-02-20T14:45:34;3.22;;;1.10;;
22144;SDS011;11238;48.730;11.566;2023-02-20T14:48:00;4.20;;;1.20;;
22144;SDS011;11238;48.730;11.566;2023-02-20T14:50:31;3.53;;;1.27;;
22144;SDS011;11238;48.730;11.566;2023-02-20T14:53:05;4.32;;;1.40;;
22144;SDS011;11238;48.730;11.566;2023-02-20T14:55:42;2.37;;;1.00;;
22144;SDS011;11238;48.730;11.566;2023-02-20T14:58:13;4.60;;;1.23;;
22144;SDS011;11238;48.730;11.566;2023-02-20T15:00:41;2.08;;;1.25;;
22144;SDS011;11238;48.730;11.566;2023-02-20T15:05:45;3.28;;;0.98;;
22144;SDS011;11238;48.730;11.566;2023-02-20T15:10:53;2.78;;;1.05;;
22144;SDS011;11238;48.730;11.566;2023-02-20T15:13:23;2.63;;;1.17;;
22144;SDS011;11238;48.730;11.566;2023-02-20T15:15:53;3.53;;;1.05;;
22144;SDS011;11238;48.730;11.566;2023-02-20T15:18:39;3.65;;;0.80;;
22144;SDS011;11238;48.730;11.566;2023-02-20T15:21:06;3.05;;;1.00;;
22144;SDS011;11238;48.730;11.566;2023-02-20T15:23:34;4.32;;;1.20;;
22144;SDS011;11238;48.730;11.566;2023-02-20T15:26:46;1.40;;;0.80;;
22144;SDS011;11238;48.730;11.566;2023-02-20T15:32:00;4.03;;;1.00;;
22144;SDS011;11238;48.730;11.566;2023-02-20T15:34:49;1.65;;;1.00;;
22144;SDS011;11238;48.730;11.566;2023-02-20T15:37:20;2.45;;;1.02;;
22144;SDS011;11238;48.730;11.566;2023-02-20T15:39:53;3.58;;;1.33;;
22144;SDS011;11238;48.730;11.566;2023-02-20T15:42:21;2.33;;;1.10;;
22144;SDS011;11238;48.730;11.566;2023-02-20T15:44:48;4.57;;;1.10;;
22144;SDS011;11238;48.730;11.566;2023-02-20T15:47:15;2.60;;;1.30;;
22144;SDS011;11238;48.730;11.566;2023-02-20T15:49:41;4.95;;;1.15;;
22144;SDS011;11238;48.730;11.566;2023-02-20T15:52:12;2.92;;;1.13;;
22144;SDS011;11238;48.730;11.566;2023-02-20T15:54:44;2.80;;;1.13;;
22144;SDS011;11238;48.730;11.566;2023-02-20T15:57:15;2.47;;;1.23;;
22144;SDS011;11238;48.730;11.566;2023-02-20T15:59:42;2.83;;;1.10;;
22144;SDS011;11238;48.730;11.566;2023-02-20T16:02:11;3.20;;;1.05;;
22144;SDS011;11238;48.730;11.566;2023-02-20T16:04:58;2.78;;;1.23;;
22144;SDS011;11238;48.730;11.566;2023-02-20T16:07:25;3.45;;;1.17;;
22144;SDS011;11238;48.730;11.566;2023-02-20T16:09:51;2.85;;;1.20;;
22144;SDS011;11238;48.730;11.566;2023-02-20T16:12:18;2.35;;;1.10;;
22144;SDS011;11238;48.730;11.566;2023-02-20T16:14:52;2.72;;;1.10;;
22144;SDS011;11238;48.730;11.566;2023-02-20T16:17:21;2.17;;;1.10;;
22144;SDS011;11238;48.730;11.566;2023-02-20T16:19:52;2.33;;;1.20;;
22144;SDS011;11238;48.730;11.566;2023-02-20T16:22:19;4.85;;;1.10;;
22144;SDS011;11238;48.730;11.566;2023-02-20T16:24:45;3.25;;;1.10;;
22144;SDS011;11238;48.730;11.566;2023-02-20T16:27:29;3.35;;;1.17;;
22144;SDS011;11238;48.730;11.566;2023-02-20T16:29:55;2.20;;;1.00;;
22144;SDS011;11238;48.730;11.566;2023-02-20T16:32:26;3.60;;;1.30;;
22144;SDS011;11238;48.730;11.566;2023-02-20T16:34:53;3.15;;;1.33;;
22144;SDS011;11238;48.730;11.566;2023-02-20T16:37:21;2.45;;;1.30;;
22144;SDS011;11238;48.730;11.566;2023-02-20T16:39:47;4.13;;;1.20;;
22144;SDS011;11238;48.730;11.566;2023-02-20T16:42:24;2.63;;;1.27;;
22144;SDS011;11238;48.730;11.566;2023-02-20T16:44:53;5.88;;;1.52;;
22144;SDS011;11238;48.730;11.566;2023-02-20T16:47:21;4.65;;;1.50;;
22144;SDS011;11238;48.730;11.566;2023-02-20T16:49:49;5.03;;;1.77;;
22144;SDS011;11238;48.730;11.566;2023-02-20T16:52:20;2.83;;;1.45;;
22144;SDS011;11238;48.730;11.566;2023-02-20T16:54:57;4.28;;;1.15;;
22144;SDS011;11238;48.730;11.566;2023-02-20T16:57:23;2.35;;;1.40;;
22144;SDS011;11238;48.730;11.566;2023-02-20T16:59:50;3.20;;;1.58;;
22144;SDS011;11238;48.730;11.566;2023-02-20T17:02:20;2.92;;;1.67;;
22144;SDS011;11238;48.730;11.566;2023-02-20T17:04:48;4.75;;;1.52;;
22144;SDS011;11238;48.730;11.566;2023-02-20T17:07:15;3.58;;;1.70;;
22144;SDS011;11238;48.730;11.566;2023-02-20T17:09:42;3.03;;;1.73;;
22144;SDS011;11238;48.730;11.566;2023-02-20T17:12:08;4.45;;;1.95;;
22144;SDS011;11238;48.730;11.566;2023-02-20T17:14:35;6.47;;;2.20;;
22144;SDS011;11238;48.730;11.566;2023-02-20T17:17:01;6.57;;;1.75;;